sensor_id;sensor_type;location;lat;lon;timestamp;pressure;altitude;pressure_sealevel;temperature;humidity
50268;BME280;36153;50.960;6.220;2023-07-30T00:01:19;100005.78;;;20.38;60.61
50268;BME280;36153;50.960;6.220;2023-07-30T00:04:19;100013.75;;;20.37;60.59
50268;BME280;36153;50.960;6.220;2023-07-30T00:07:21;100007.84;;;20.30;60.75
50268;BME280;36153;50.960;6.220;2023-07-30T00:10:21;100010.59;;;20.27;60.41
50268;BME280;36153;50.960;6.220;2023-07-30T00:13:22;100017.75;;;20.23;60.69
50268;BME280;36153;50.960;6.220;2023-07-30T00:16:22;100014.09;;;20.27;60.57
50268;BME280;36153;50.960;6.220;2023-07-30T00:19:22;100012.38;;;20.26;60.47
50268;BME280;36153;50.960;6.220;2023-07-30T00:22:23;100006.81;;;20.34;60.22
50268;BME280;36153;50.960;6.220;2023-07-30T00:25:23;100013.06;;;20.55;60.17
50268;BME280;36153;50.960;6.220;2023-07-30T00:28:23;100011.75;;;20.67;59.47
50268;BME280;36153;50.960;6.220;2023-07-30T00:31:24;100012.91;;;20.60;59.68
50268;BME280;36153;50.960;6.220;2023-07-30T00:34:24;100019.84;;;20.62;59.65
50268;BME280;36153;50.960;6.220;2023-07-30T00:37:24;100018.47;;;20.52;60.20
50268;BME280;36153;50.960;6.220;2023-07-30T00:40:27;100027.69;;;20.66;60.16
50268;BME280;36153;50.960;6.220;2023-07-30T00:43:28;100027.41;;;20.73;59.92
50268;BME280;36153;50.960;6.220;2023-07-30T00:46:28;100026.38;;;20.77;60.11
50268;BME280;36153;50.960;6.220;2023-07-30T00:49:29;100029.66;;;20.84;59.64
50268;BME280;36153;50.960;6.220;2023-07-30T00:52:29;100032.00;;;20.92;60.63
50268;BME280;36153;50.960;6.220;2023-07-30T00:55:30;100038.28;;;20.89;60.45
50268;BME280;36153;50.960;6.220;2023-07-30T00:58:31;100034.22;;;21.03;59.25
50268;BME280;36153;50.960;6.220;2023-07-30T01:01:33;100038.22;;;21.13;59.12
50268;BME280;36153;50.960;6.220;2023-07-30T01:04:36;100037.84;;;21.22;58.86
50268;BME280;36153;50.960;6.220;2023-07-30T01:07:37;100043.06;;;21.24;58.65
50268;BME280;36153;50.960;6.220;2023-07-30T01:10:38;100042.16;;;21.25;58.73
50268;BME280;36153;50.960;6.220;2023-07-30T01:13:41;100048.88;;;21.34;58.67
50268;BME280;36153;50.960;6.220;2023-07-30T01:16:42;100044.44;;;21.34;58.91
50268;BME280;36153;50.960;6.220;2023-07-30T01:19:43;100042.91;;;21.28;58.92
50268;BME280;36153;50.960;6.220;2023-07-30T01:22:44;100047.94;;;21.35;58.83
50268;BME280;36153;50.960;6.220;2023-07-30T01:25:44;100036.88;;;21.25;58.74
50268;BME280;36153;50.960;6.220;2023-07-30T01:28:48;100048.88;;;21.34;58.47
50268;BME280;36153;50.960;6.220;2023-07-30T01:31:55;100045.28;;;21.35;58.50
50268;BME280;36153;50.960;6.220;2023-07-30T01:34:57;100049.59;;;21.37;58.17
50268;BME280;36153;50.960;6.220;2023-07-30T01:37:58;100052.19;;;21.39;58.50
50268;BME280;36153;50.960;6.220;2023-07-30T01:40:58;100059.16;;;21.41;58.36
50268;BME280;36153;50.960;6.220;2023-07-30T01:43:59;100052.53;;;21.52;57.87
50268;BME280;36153;50.960;6.220;2023-07-30T01:46:59;100055.72;;;21.39;58.17
50268;BME280;36153;50.960;6.220;2023-07-30T01:50:00;100070.50;;;21.45;58.13
50268;BME280;36153;50.960;6.220;2023-07-30T01:53:00;100067.91;;;21.43;58.38
50268;BME280;36153;50.960;6.220;2023-07-30T01:56:00;100065.19;;;21.45;58.09
50268;BME280;36153;50.960;6.220;2023-07-30T01:59:01;100062.91;;;21.36;58.70
50268;BME280;36153;50.960;6.220;2023-07-30T02:02:01;100068.13;;;21.37;58.21
50268;BME280;36153;50.960;6.220;2023-07-30T02:05:01;100061.66;;;21.22;58.30
50268;BME280;36153;50.960;6.220;2023-07-30T02:08:02;100065.69;;;21.33;57.75
50268;BME280;36153;50.960;6.220;2023-07-30T02:11:03;100062.84;;;21.15;57.94
50268;BME280;36153;50.960;6.220;2023-07-30T02:14:03;100058.47;;;21.14;58.37
50268;BME280;36153;50.960;6.220;2023-07-30T02:17:04;100063.53;;;21.20;57.54
50268;BME280;36153;50.960;6.220;2023-07-30T02:20:05;100060.19;;;21.15;57.73
50268;BME280;36153;50.960;6.220;2023-07-30T02:23:05;100061.59;;;21.24;57.41
50268;BME280;36153;50.960;6.220;2023-07-30T02:26:06;100068.69;;;21.23;57.34
50268;BME280;36153;50.960;6.220;2023-07-30T02:29:06;100071.28;;;21.25;56.90
50268;BME280;36153;50.960;6.220;2023-07-30T02:32:07;100073.75;;;21.29;56.80
50268;BME280;36153;50.960;6.220;2023-07-30T02:35:07;100077.69;;;21.19;56.81
50268;BME280;36153;50.960;6.220;2023-07-30T02:38:07;100085.19;;;21.08;57.15
50268;BME280;36153;50.960;6.220;2023-07-30T02:41:08;100092.19;;;20.61;57.02
50268;BME280;36153;50.960;6.220;2023-07-30T02:44:08;100083.75;;;20.00;54.81
50268;BME280;36153;50.960;6.220;2023-07-30T02:47:09;100076.41;;;19.83;55.34
50268;BME280;36153;50.960;6.220;2023-07-30T02:50:09;100084.16;;;19.60;55.06
50268;BME280;36153;50.960;6.220;2023-07-30T02:53:10;100079.84;;;19.86;53.11
50268;BME280;36153;50.960;6.220;2023-07-30T02:56:10;100076.00;;;19.95;52.85
50268;BME280;36153;50.960;6.220;2023-07-30T02:59:10;100067.19;;;19.68;52.17
50268;BME280;36153;50.960;6.220;2023-07-30T03:02:11;100080.75;;;19.85;51.42
50268;BME280;36153;50.960;6.220;2023-07-30T03:05:11;100079.00;;;19.84;50.89
50268;BME280;36153;50.960;6.220;2023-07-30T03:08:12;100073.19;;;20.00;49.86
50268;BME280;36153;50.960;6.220;2023-07-30T03:11:13;100080.56;;;20.17;49.54
50268;BME280;36153;50.960;6.220;2023-07-30T03:14:14;100083.84;;;20.23;50.00
50268;BME280;36153;50.960;6.220;2023-07-30T03:17:14;100070.91;;;20.16;50.22
50268;BME280;36153;50.960;6.220;2023-07-30T03:20:15;100078.28;;;20.06;51.03
50268;BME280;36153;50.960;6.220;2023-07-30T03:23:15;100088.69;;;20.10;51.52
50268;BME280;36153;50.960;6.220;2023-07-30T03:26:15;100084.19;;;20.14;52.01
50268;BME280;36153;50.960;6.220;2023-07-30T03:29:16;100085.38;;;20.29;52.03
50268;BME280;36153;50.960;6.220;2023-07-30T03:32:16;100084.47;;;20.30;52.30
50268;BME280;36153;50.960;6.220;2023-07-30T03:35:16;100091.56;;;20.29;52.37
50268;BME280;36153;50.960;6.220;2023-07-30T03:38:17;100093.97;;;20.36;52.22
50268;BME280;36153;50.960;6.220;2023-07-30T03:41:17;100098.91;;;20.21;52.84
50268;BME280;36153;50.960;6.220;2023-07-30T03:44:17;100090.78;;;20.26;52.94
50268;BME280;36153;50.960;6.220;2023-07-30T03:47:18;100095.94;;;20.31;52.65
50268;BME280;36153;50.960;6.220;2023-07-30T03:50:18;100103.63;;;20.37;52.64
50268;BME280;36153;50.960;6.220;2023-07-30T03:53:18;100110.41;;;20.44;52.47
50268;BME280;36153;50.960;6.220;2023-07-30T03:56:19;100100.88;;;20.40;52.54
50268;BME280;36153;50.960;6.220;2023-07-30T03:59:19;100110.66;;;20.38;52.39
50268;BME280;36153;50.960;6.220;2023-07-30T04:02:19;100108.00;;;20.38;52.72
50268;BME280;36153;50.960;6.220;2023-07-30T04:05:20;100115.06;;;20.37;52.08
50268;BME280;36153;50.960;6.220;2023-07-30T04:08:21;100117.56;;;20.42;52.08
50268;BME280;36153;50.960;6.220;2023-07-30T04:11:21;100114.31;;;20.34;52.21
50268;BME280;36153;50.960;6.220;2023-07-30T04:14:21;100126.66;;;20.33;51.88
50268;BME280;36153;50.960;6.220;2023-07-30T04:17:22;100124.44;;;20.21;52.48
50268;BME280;36153;50.960;6.220;2023-07-30T04:20:22;100130.13;;;20.10;53.56
50268;BME280;36153;50.960;6.220;2023-07-30T04:23:22;100124.53;;;19.92;54.58
50268;BME280;36153;50.960;6.220;2023-07-30T04:26:23;100133.94;;;19.73;56.00
50268;BME280;36153;50.960;6.220;2023-07-30T04:29:23;100136.22;;;19.57;56.92
50268;BME280;36153;50.960;6.220;2023-07-30T04:32:23;100132.31;;;19.69;56.78
50268;BME280;36153;50.960;6.220;2023-07-30T04:35:24;100141.06;;;19.71;56.77
50268;BME280;36153;50.960;6.220;2023-07-30T04:38:24;100131.13;;;19.77;57.23
50268;BME280;36153;50.960;6.220;2023-07-30T04:41:24;100125.50;;;19.61;57.40
50268;BME280;36153;50.960;6.220;2023-07-30T04:44:25;100119.72;;;19.77;58.47
50268;BME280;36153;50.960;6.220;2023-07-30T04:47:25;100117.63;;;19.88;58.09
50268;BME280;36153;50.960;6.220;2023-07-30T04:50:26;100128.34;;;19.84;57.51
50268;BME280;36153;50.960;6.220;2023-07-30T04:53:26;100129.56;;;20.00;58.33
50268;BME280;36153;50.960;6.220;2023-07-30T04:56:26;100132.72;;;19.85;57.67
50268;BME280;36153;50.960;6.220;2023-07-30T04:59:27;100131.28;;;19.73;58.33
50268;BME280;36153;50.960;6.220;2023-07-30T05:02:27;100130.94;;;19.85;58.41
50268;BME280;36153;50.960;6.220;2023-07-30T05:05:28;100129.06;;;19.89;58.46
50268;BME280;36153;50.960;6.220;2023-07-30T05:08:28;100137.72;;;19.92;58.23
50268;BME280;36153;50.960;6.220;2023-07-30T05:11:28;100128.41;;;19.82;58.82
50268;BME280;36153;50.960;6.220;2023-07-30T05:14:29;100137.13;;;19.84;58.21
50268;BME280;36153;50.960;6.220;2023-07-30T05:17:29;100141.31;;;19.90;58.18
50268;BME280;36153;50.960;6.220;2023-07-30T05:20:30;100142.09;;;19.93;58.41
50268;BME280;36153;50.960;6.220;2023-07-30T05:23:30;100148.19;;;19.95;58.73
50268;BME280;36153;50.960;6.220;2023-07-30T05:26:31;100146.44;;;19.96;58.99
50268;BME280;36153;50.960;6.220;2023-07-30T05:29:31;100140.75;;;20.07;59.04
50268;BME280;36153;50.960;6.220;2023-07-30T05:32:31;100138.84;;;20.12;58.45
50268;BME280;36153;50.960;6.220;2023-07-30T05:35:32;100127.84;;;20.24;58.22
50268;BME280;36153;50.960;6.220;2023-07-30T05:38:32;100126.41;;;20.16;58.83
50268;BME280;36153;50.960;6.220;2023-07-30T05:41:32;100129.88;;;20.16;58.37
50268;BME280;36153;50.960;6.220;2023-07-30T05:44:33;100126.94;;;20.25;58.54
50268;BME280;36153;50.960;6.220;2023-07-30T05:47:33;100130.22;;;20.57;58.51
50268;BME280;36153;50.960;6.220;2023-07-30T05:50:33;100141.47;;;20.62;57.25
50268;BME280;36153;50.960;6.220;2023-07-30T05:53:34;100142.16;;;20.69;57.35
50268;BME280;36153;50.960;6.220;2023-07-30T05:56:34;100135.69;;;20.78;57.16
50268;BME280;36153;50.960;6.220;2023-07-30T05:59:34;100144.09;;;20.89;57.18
50268;BME280;36153;50.960;6.220;2023-07-30T06:02:35;100149.78;;;21.02;56.18
50268;BME280;36153;50.960;6.220;2023-07-30T06:05:39;100149.47;;;20.86;56.31
50268;BME280;36153;50.960;6.220;2023-07-30T06:08:40;100156.84;;;20.78;56.29
50268;BME280;36153;50.960;6.220;2023-07-30T06:11:40;100168.28;;;20.78;56.24
50268;BME280;36153;50.960;6.220;2023-07-30T06:14:41;100163.97;;;20.76;56.63
50268;BME280;36153;50.960;6.220;2023-07-30T06:17:41;100168.66;;;20.68;56.44
50268;BME280;36153;50.960;6.220;2023-07-30T06:20:42;100170.00;;;20.54;56.50
50268;BME280;36153;50.960;6.220;2023-07-30T06:23:42;100163.66;;;20.85;56.59
50268;BME280;36153;50.960;6.220;2023-07-30T06:26:42;100163.06;;;21.01;55.82
50268;BME280;36153;50.960;6.220;2023-07-30T06:29:43;100161.34;;;21.00;55.30
50268;BME280;36153;50.960;6.220;2023-07-30T06:32:43;100161.41;;;21.22;55.35
50268;BME280;36153;50.960;6.220;2023-07-30T06:35:44;100164.44;;;21.11;55.33
50268;BME280;36153;50.960;6.220;2023-07-30T06:38:44;100159.56;;;21.46;55.20
50268;BME280;36153;50.960;6.220;2023-07-30T06:41:45;100163.75;;;21.53;54.18
50268;BME280;36153;50.960;6.220;2023-07-30T06:44:46;100166.22;;;21.58;54.61
50268;BME280;36153;50.960;6.220;2023-07-30T06:47:46;100161.06;;;21.55;54.99
50268;BME280;36153;50.960;6.220;2023-07-30T06:50:46;100164.88;;;21.46;54.96
50268;BME280;36153;50.960;6.220;2023-07-30T06:53:47;100158.91;;;21.64;54.79
50268;BME280;36153;50.960;6.220;2023-07-30T06:56:47;100168.03;;;21.57;54.71
50268;BME280;36153;50.960;6.220;2023-07-30T06:59:47;100171.72;;;21.52;55.29
50268;BME280;36153;50.960;6.220;2023-07-30T07:02:48;100183.78;;;21.60;55.01
50268;BME280;36153;50.960;6.220;2023-07-30T07:05:55;100177.59;;;21.60;55.40
50268;BME280;36153;50.960;6.220;2023-07-30T07:08:56;100187.09;;;21.65;55.60
50268;BME280;36153;50.960;6.220;2023-07-30T07:11:56;100190.25;;;21.53;55.66
50268;BME280;36153;50.960;6.220;2023-07-30T07:14:56;100199.28;;;21.46;55.99
50268;BME280;36153;50.960;6.220;2023-07-30T07:17:58;100188.00;;;21.19;56.80
50268;BME280;36153;50.960;6.220;2023-07-30T07:20:58;100199.66;;;21.37;56.28
50268;BME280;36153;50.960;6.220;2023-07-30T07:23:59;100195.53;;;21.29;56.75
50268;BME280;36153;50.960;6.220;2023-07-30T07:26:59;100192.88;;;21.29;56.86
50268;BME280;36153;50.960;6.220;2023-07-30T07:29:59;100194.94;;;21.45;56.11
50268;BME280;36153;50.960;6.220;2023-07-30T07:33:00;100195.00;;;21.67;55.78
50268;BME280;36153;50.960;6.220;2023-07-30T07:36:07;100198.56;;;21.66;55.74
50268;BME280;36153;50.960;6.220;2023-07-30T07:39:07;100204.28;;;21.77;55.16
50268;BME280;36153;50.960;6.220;2023-07-30T07:42:08;100211.00;;;21.86;55.78
50268;BME280;36153;50.960;6.220;2023-07-30T07:45:08;100206.41;;;21.91;55.74
50268;BME280;36153;50.960;6.220;2023-07-30T07:48:09;100201.22;;;21.88;55.21
50268;BME280;36153;50.960;6.220;2023-07-30T07:51:10;100209.88;;;22.14;54.70
50268;BME280;36153;50.960;6.220;2023-07-30T07:54:10;100210.28;;;22.05;54.85
50268;BME280;36153;50.960;6.220;2023-07-30T07:57:11;100219.38;;;22.20;54.77
50268;BME280;36153;50.960;6.220;2023-07-30T08:00:11;100218.78;;;21.91;55.05
50268;BME280;36153;50.960;6.220;2023-07-30T08:03:12;100207.75;;;21.57;55.61
50268;BME280;36153;50.960;6.220;2023-07-30T08:06:12;100208.91;;;21.94;55.11
50268;BME280;36153;50.960;6.220;2023-07-30T08:09:12;100217.19;;;22.09;54.89
50268;BME280;36153;50.960;6.220;2023-07-30T08:12:13;100218.41;;;22.00;54.46
50268;BME280;36153;50.960;6.220;2023-07-30T08:15:14;100214.84;;;22.01;54.52
50268;BME280;36153;50.960;6.220;2023-07-30T08:18:14;100208.91;;;21.94;54.75
50268;BME280;36153;50.960;6.220;2023-07-30T08:21:15;100212.72;;;22.09;54.20
50268;BME280;36153;50.960;6.220;2023-07-30T08:24:17;100210.28;;;22.68;53.09
50268;BME280;36153;50.960;6.220;2023-07-30T08:27:17;100203.91;;;23.13;51.94
50268;BME280;36153;50.960;6.220;2023-07-30T08:30:18;100210.25;;;23.09;50.87
50268;BME280;36153;50.960;6.220;2023-07-30T08:33:18;100208.59;;;23.07;51.05
50268;BME280;36153;50.960;6.220;2023-07-30T08:36:19;100222.28;;;22.77;51.88
50268;BME280;36153;50.960;6.220;2023-07-30T08:39:19;100213.31;;;23.00;51.36
50268;BME280;36153;50.960;6.220;2023-07-30T08:42:19;100220.53;;;22.96;51.80
50268;BME280;36153;50.960;6.220;2023-07-30T08:45:20;100218.19;;;22.90;51.94
50268;BME280;36153;50.960;6.220;2023-07-30T08:48:20;100222.84;;;22.44;52.11
50268;BME280;36153;50.960;6.220;2023-07-30T08:51:21;100220.31;;;22.61;52.33
50268;BME280;36153;50.960;6.220;2023-07-30T08:54:22;100219.44;;;22.40;52.16
50268;BME280;36153;50.960;6.220;2023-07-30T08:57:23;100217.69;;;22.17;52.78
50268;BME280;36153;50.960;6.220;2023-07-30T09:00:25;100225.44;;;22.01;52.07
50268;BME280;36153;50.960;6.220;2023-07-30T09:03:27;100226.78;;;22.33;52.52
50268;BME280;36153;50.960;6.220;2023-07-30T09:06:28;100217.69;;;23.41;50.01
50268;BME280;36153;50.960;6.220;2023-07-30T09:09:28;100215.72;;;23.82;48.87
50268;BME280;36153;50.960;6.220;2023-07-30T09:12:30;100220.22;;;24.01;48.29
50268;BME280;36153;50.960;6.220;2023-07-30T09:15:32;100211.84;;;24.44;47.40
50268;BME280;36153;50.960;6.220;2023-07-30T09:18:44;100210.13;;;24.60;47.60
50268;BME280;36153;50.960;6.220;2023-07-30T09:21:45;100211.44;;;24.70;46.35
50268;BME280;36153;50.960;6.220;2023-07-30T09:24:45;100214.00;;;24.00;46.46
50268;BME280;36153;50.960;6.220;2023-07-30T09:27:52;100218.28;;;24.22;46.34
50268;BME280;36153;50.960;6.220;2023-07-30T09:31:02;100221.25;;;24.86;44.85
50268;BME280;36153;50.960;6.220;2023-07-30T09:34:03;100213.19;;;25.21;44.23
50268;BME280;36153;50.960;6.220;2023-07-30T09:37:04;100207.56;;;25.59;42.34
50268;BME280;36153;50.960;6.220;2023-07-30T09:40:10;100212.56;;;25.33;41.53
50268;BME280;36153;50.960;6.220;2023-07-30T09:43:12;100226.88;;;25.31;43.41
50268;BME280;36153;50.960;6.220;2023-07-30T09:46:12;100230.78;;;25.57;42.33
50268;BME280;36153;50.960;6.220;2023-07-30T09:49:13;100224.44;;;25.60;41.22
50268;BME280;36153;50.960;6.220;2023-07-30T09:52:13;100222.63;;;25.44;41.57
50268;BME280;36153;50.960;6.220;2023-07-30T09:55:15;100226.22;;;25.59;41.59
50268;BME280;36153;50.960;6.220;2023-07-30T09:58:15;100233.81;;;25.67;41.05
50268;BME280;36153;50.960;6.220;2023-07-30T10:01:17;100224.69;;;25.21;41.39
50268;BME280;36153;50.960;6.220;2023-07-30T10:04:19;100221.84;;;25.42;41.49
50268;BME280;36153;50.960;6.220;2023-07-30T10:07:23;100237.50;;;25.64;40.47
50268;BME280;36153;50.960;6.220;2023-07-30T10:10:25;100226.47;;;25.38;40.63
50268;BME280;36153;50.960;6.220;2023-07-30T10:13:27;100222.53;;;25.12;40.38
50268;BME280;36153;50.960;6.220;2023-07-30T10:16:29;100235.50;;;25.02;41.47
50268;BME280;36153;50.960;6.220;2023-07-30T10:19:29;100232.75;;;25.04;41.37
50268;BME280;36153;50.960;6.220;2023-07-30T10:22:31;100221.31;;;25.35;41.21
50268;BME280;36153;50.960;6.220;2023-07-30T10:28:41;100231.38;;;25.62;41.05
50268;BME280;36153;50.960;6.220;2023-07-30T10:31:49;100238.94;;;26.18;39.70
50268;BME280;36153;50.960;6.220;2023-07-30T10:34:54;100237.16;;;25.86;39.91
50268;BME280;36153;50.960;6.220;2023-07-30T10:37:55;100229.69;;;25.61;41.26
50268;BME280;36153;50.960;6.220;2023-07-30T10:41:09;100236.44;;;25.51;39.72
50268;BME280;36153;50.960;6.220;2023-07-30T10:44:27;100242.97;;;25.12;41.32
50268;BME280;36153;50.960;6.220;2023-07-30T10:47:28;100237.91;;;24.90;41.98
50268;BME280;36153;50.960;6.220;2023-07-30T10:50:28;100240.09;;;24.99;41.05
50268;BME280;36153;50.960;6.220;2023-07-30T10:53:29;100241.28;;;25.44;41.04
50268;BME280;36153;50.960;6.220;2023-07-30T10:56:29;100247.53;;;25.43;41.08
50268;BME280;36153;50.960;6.220;2023-07-30T10:59:37;100270.41;;;24.96;42.29
50268;BME280;36153;50.960;6.220;2023-07-30T11:02:37;100267.78;;;24.79;42.76
50268;BME280;36153;50.960;6.220;2023-07-30T11:05:38;100274.41;;;24.70;42.91
50268;BME280;36153;50.960;6.220;2023-07-30T11:08:42;100264.34;;;25.93;41.76
50268;BME280;36153;50.960;6.220;2023-07-30T11:11:42;100263.97;;;25.67;41.63
50268;BME280;36153;50.960;6.220;2023-07-30T11:14:43;100263.09;;;25.51;41.87
50268;BME280;36153;50.960;6.220;2023-07-30T11:17:43;100269.75;;;25.26;42.16
50268;BME280;36153;50.960;6.220;2023-07-30T11:20:46;100274.34;;;24.89;42.90
50268;BME280;36153;50.960;6.220;2023-07-30T11:23:46;100313.19;;;24.02;44.48
50268;BME280;36153;50.960;6.220;2023-07-30T11:26:57;100311.22;;;22.87;48.75
50268;BME280;36153;50.960;6.220;2023-07-30T11:29:58;100316.75;;;22.81;49.93
50268;BME280;36153;50.960;6.220;2023-07-30T11:32:59;100316.16;;;23.57;48.57
50268;BME280;36153;50.960;6.220;2023-07-30T11:36:00;100305.28;;;24.01;47.61
50268;BME280;36153;50.960;6.220;2023-07-30T11:39:02;100308.78;;;24.92;45.87
50268;BME280;36153;50.960;6.220;2023-07-30T11:42:02;100320.00;;;24.64;46.19
50268;BME280;36153;50.960;6.220;2023-07-30T11:45:22;100321.72;;;24.65;46.73
50268;BME280;36153;50.960;6.220;2023-07-30T11:48:23;100314.41;;;25.03;45.74
50268;BME280;36153;50.960;6.220;2023-07-30T11:51:27;100316.88;;;25.08;45.88
50268;BME280;36153;50.960;6.220;2023-07-30T11:54:28;100326.88;;;25.03;45.37
50268;BME280;36153;50.960;6.220;2023-07-30T11:57:35;100314.84;;;24.42;46.42
50268;BME280;36153;50.960;6.220;2023-07-30T12:00:40;100314.56;;;25.18;45.48
50268;BME280;36153;50.960;6.220;2023-07-30T12:03:41;100325.22;;;25.35;45.23
50268;BME280;36153;50.960;6.220;2023-07-30T12:09:42;100319.50;;;26.09;43.77
50268;BME280;36153;50.960;6.220;2023-07-30T12:12:44;100319.47;;;26.40;42.89
50268;BME280;36153;50.960;6.220;2023-07-30T12:15:51;100333.34;;;26.31;43.55
50268;BME280;36153;50.960;6.220;2023-07-30T12:18:52;100328.78;;;26.17;43.77
50268;BME280;36153;50.960;6.220;2023-07-30T12:21:52;100333.84;;;25.41;44.66
50268;BME280;36153;50.960;6.220;2023-07-30T12:24:53;100335.47;;;24.73;46.14
50268;BME280;36153;50.960;6.220;2023-07-30T12:27:53;100333.63;;;24.56;48.13
50268;BME280;36153;50.960;6.220;2023-07-30T12:30:53;100335.44;;;24.19;48.54
50268;BME280;36153;50.960;6.220;2023-07-30T12:33:55;100347.03;;;24.35;48.95
50268;BME280;36153;50.960;6.220;2023-07-30T12:36:55;100337.28;;;24.73;48.56
50268;BME280;36153;50.960;6.220;2023-07-30T12:39:56;100339.88;;;25.27;47.23
50268;BME280;36153;50.960;6.220;2023-07-30T12:42:56;100332.06;;;26.06;45.92
50268;BME280;36153;50.960;6.220;2023-07-30T12:45:57;100336.66;;;26.67;44.83
50268;BME280;36153;50.960;6.220;2023-07-30T12:48:58;100330.75;;;26.14;44.24
50268;BME280;36153;50.960;6.220;2023-07-30T12:52:03;100318.34;;;26.45;42.53
50268;BME280;36153;50.960;6.220;2023-07-30T12:55:04;100321.56;;;26.82;41.65
50268;BME280;36153;50.960;6.220;2023-07-30T12:58:04;100309.78;;;27.29;40.86
50268;BME280;36153;50.960;6.220;2023-07-30T13:01:05;100310.44;;;27.04;41.45
50268;BME280;36153;50.960;6.220;2023-07-30T13:04:05;100310.63;;;26.86;42.03
50268;BME280;36153;50.960;6.220;2023-07-30T13:07:05;100315.00;;;26.41;42.96
50268;BME280;36153;50.960;6.220;2023-07-30T13:10:07;100307.88;;;25.78;43.13
50268;BME280;36153;50.960;6.220;2023-07-30T13:13:08;100312.25;;;25.45;43.26
50268;BME280;36153;50.960;6.220;2023-07-30T13:16:08;100311.44;;;25.10;44.62
50268;BME280;36153;50.960;6.220;2023-07-30T13:19:08;100324.22;;;25.03;44.85
50268;BME280;36153;50.960;6.220;2023-07-30T13:22:09;100326.16;;;26.01;43.57
50268;BME280;36153;50.960;6.220;2023-07-30T13:25:09;100325.25;;;26.49;42.61
50268;BME280;36153;50.960;6.220;2023-07-30T13:28:09;100325.25;;;27.09;41.63
50268;BME280;36153;50.960;6.220;2023-07-30T13:31:10;100310.38;;;27.20;40.54
50268;BME280;36153;50.960;6.220;2023-07-30T13:34:10;100314.97;;;27.32;38.93
50268;BME280;36153;50.960;6.220;2023-07-30T13:37:11;100306.75;;;27.79;38.05
50268;BME280;36153;50.960;6.220;2023-07-30T13:40:11;100318.56;;;27.89;37.52
50268;BME280;36153;50.960;6.220;2023-07-30T13:43:12;100303.03;;;27.67;36.72
50268;BME280;36153;50.960;6.220;2023-07-30T13:46:12;100302.19;;;27.66;36.22
50268;BME280;36153;50.960;6.220;2023-07-30T13:49:12;100296.09;;;28.20;36.02
50268;BME280;36153;50.960;6.220;2023-07-30T13:52:13;100295.78;;;28.25;34.80
50268;BME280;36153;50.960;6.220;2023-07-30T13:55:14;100292.13;;;28.26;35.92
50268;BME280;36153;50.960;6.220;2023-07-30T13:58:14;100287.34;;;28.31;35.48
50268;BME280;36153;50.960;6.220;2023-07-30T14:01:14;100290.44;;;28.38;35.21
50268;BME280;36153;50.960;6.220;2023-07-30T14:04:15;100293.59;;;27.32;37.29
50268;BME280;36153;50.960;6.220;2023-07-30T14:07:16;100300.59;;;27.49;37.24
50268;BME280;36153;50.960;6.220;2023-07-30T14:10:16;100294.47;;;28.18;36.37
50268;BME280;36153;50.960;6.220;2023-07-30T14:13:16;100290.63;;;28.49;35.20
50268;BME280;36153;50.960;6.220;2023-07-30T14:16:17;100288.50;;;27.13;36.24
50268;BME280;36153;50.960;6.220;2023-07-30T14:19:17;100297.88;;;27.35;35.46
50268;BME280;36153;50.960;6.220;2023-07-30T14:22:17;100290.41;;;27.11;35.83
50268;BME280;36153;50.960;6.220;2023-07-30T14:25:18;100286.59;;;27.15;36.11
50268;BME280;36153;50.960;6.220;2023-07-30T14:28:18;100294.34;;;27.77;34.97
50268;BME280;36153;50.960;6.220;2023-07-30T14:31:18;100290.06;;;28.17;34.70
50268;BME280;36153;50.960;6.220;2023-07-30T14:34:19;100291.56;;;27.79;34.50
50268;BME280;36153;50.960;6.220;2023-07-30T14:37:19;100289.72;;;28.36;33.89
50268;BME280;36153;50.960;6.220;2023-07-30T14:40:19;100297.84;;;27.92;34.02
50268;BME280;36153;50.960;6.220;2023-07-30T14:43:20;100292.53;;;28.60;33.78
50268;BME280;36153;50.960;6.220;2023-07-30T14:46:20;100302.44;;;28.32;33.85
50268;BME280;36153;50.960;6.220;2023-07-30T14:49:21;100294.88;;;28.52;33.67
50268;BME280;36153;50.960;6.220;2023-07-30T14:52:21;100289.22;;;29.09;33.23
50268;BME280;36153;50.960;6.220;2023-07-30T14:55:22;100287.19;;;29.52;32.93
50268;BME280;36153;50.960;6.220;2023-07-30T14:58:22;100282.56;;;29.41;33.15
50268;BME280;36153;50.960;6.220;2023-07-30T15:01:22;100281.09;;;28.58;33.71
50268;BME280;36153;50.960;6.220;2023-07-30T15:04:23;100284.84;;;28.28;33.23
50268;BME280;36153;50.960;6.220;2023-07-30T15:07:23;100280.09;;;28.86;32.47
50268;BME280;36153;50.960;6.220;2023-07-30T15:10:26;100270.47;;;28.43;33.20
50268;BME280;36153;50.960;6.220;2023-07-30T15:13:26;100272.38;;;29.07;32.98
50268;BME280;36153;50.960;6.220;2023-07-30T15:16:28;100276.47;;;28.60;33.42
50268;BME280;36153;50.960;6.220;2023-07-30T15:19:28;100273.88;;;28.33;34.12
50268;BME280;36153;50.960;6.220;2023-07-30T15:22:28;100280.31;;;27.59;34.86
50268;BME280;36153;50.960;6.220;2023-07-30T15:25:29;100274.31;;;28.39;33.18
50268;BME280;36153;50.960;6.220;2023-07-30T15:28:29;100275.50;;;29.01;32.36
50268;BME280;36153;50.960;6.220;2023-07-30T15:31:29;100279.47;;;28.83;32.68
50268;BME280;36153;50.960;6.220;2023-07-30T15:34:30;100281.41;;;28.53;32.58
50268;BME280;36153;50.960;6.220;2023-07-30T15:37:31;100276.34;;;27.94;32.60
50268;BME280;36153;50.960;6.220;2023-07-30T15:40:33;100271.56;;;28.54;33.11
50268;BME280;36153;50.960;6.220;2023-07-30T15:43:34;100272.56;;;28.66;31.81
50268;BME280;36153;50.960;6.220;2023-07-30T15:46:35;100266.38;;;27.96;32.56
50268;BME280;36153;50.960;6.220;2023-07-30T15:49:35;100261.66;;;28.41;31.99
50268;BME280;36153;50.960;6.220;2023-07-30T15:52:35;100277.84;;;28.93;31.77